createdAt,value
2023-01-23T00:01:41.522Z,9.46
2023-01-23T00:04:11.440Z,9.46
2023-01-23T00:06:40.882Z,9.47
2023-01-23T00:09:09.426Z,9.45
2023-01-23T00:11:37.447Z,9.43
2023-01-23T00:14:05.910Z,9.45
2023-01-23T00:16:34.655Z,9.42
2023-01-23T00:19:04.387Z,9.40
2023-01-23T00:21:32.477Z,9.38
2023-01-23T00:24:02.201Z,9.36
2023-01-23T00:26:32.959Z,9.32
2023-01-23T00:29:01.037Z,9.29
2023-01-23T00:31:32.945Z,9.29
2023-01-23T00:34:05.667Z,9.27
2023-01-23T00:36:36.786Z,9.24
2023-01-23T00:39:07.631Z,9.20
2023-01-23T00:41:35.700Z,9.20
2023-01-23T00:44:03.821Z,9.18
2023-01-23T00:46:31.865Z,9.20
2023-01-23T00:48:59.862Z,9.18
2023-01-23T00:51:29.348Z,9.19
2023-01-23T00:53:57.664Z,9.20
2023-01-23T00:56:25.612Z,9.18
2023-01-23T00:58:53.554Z,9.16
2023-01-23T01:01:22.878Z,9.14
2023-01-23T01:03:51.360Z,9.15
2023-01-23T01:06:19.325Z,9.17
2023-01-23T01:08:49.127Z,9.17
2023-01-23T01:11:17.076Z,9.21
2023-01-23T01:13:46.822Z,9.23
2023-01-23T01:16:14.847Z,9.25
2023-01-23T01:18:42.995Z,9.25
2023-01-23T01:21:13.224Z,9.26
2023-01-23T01:23:41.952Z,9.24
2023-01-23T01:26:12.518Z,9.23
2023-01-23T01:28:42.260Z,9.23
2023-01-23T01:31:13.152Z,9.21
2023-01-23T01:33:42.072Z,9.23
2023-01-23T01:36:11.487Z,9.21
2023-01-23T01:38:39.805Z,9.20
2023-01-23T01:41:08.411Z,9.21
2023-01-23T01:43:38.187Z,9.19
2023-01-23T01:46:14.115Z,9.18
2023-01-23T01:48:47.094Z,9.17
2023-01-23T01:51:22.655Z,9.17
2023-01-23T01:53:56.389Z,9.16
2023-01-23T01:56:24.837Z,9.18
2023-01-23T01:58:55.497Z,9.18
2023-01-23T02:01:23.520Z,9.19
2023-01-23T02:03:53.098Z,9.21
2023-01-23T02:06:21.866Z,9.21
2023-01-23T02:08:58.229Z,9.22
2023-01-23T02:11:26.192Z,9.22
2023-01-23T02:13:57.288Z,9.20
2023-01-23T02:16:29.675Z,9.20
2023-01-23T02:19:01.891Z,9.19
2023-01-23T02:21:30.590Z,9.20
2023-01-23T02:24:09.438Z,9.18
2023-01-23T02:26:41.758Z,9.18
2023-01-23T02:29:09.842Z,9.16
2023-01-23T02:31:38.357Z,9.11
2023-01-23T02:34:06.718Z,9.11
2023-01-23T02:36:36.404Z,9.13
2023-01-23T02:39:07.947Z,9.11
2023-01-23T02:41:40.165Z,9.09
2023-01-23T02:44:13.864Z,9.06
2023-01-23T02:46:41.944Z,9.02
2023-01-23T02:49:10.338Z,9.01
2023-01-23T02:51:40.852Z,9.02
2023-01-23T02:54:09.476Z,9.02
2023-01-23T02:56:39.027Z,9.05
2023-01-23T02:59:24.266Z,9.07
2023-01-23T03:01:52.249Z,9.04
2023-01-23T03:04:20.709Z,9.05
2023-01-23T03:06:48.841Z,9.05
2023-01-23T03:09:18.352Z,9.04
2023-01-23T03:11:48.287Z,9.01
2023-01-23T03:14:18.604Z,9.02
2023-01-23T03:16:51.341Z,9.01
2023-01-23T03:19:24.420Z,9.01
2023-01-23T03:21:52.872Z,9.01
2023-01-23T03:24:21.603Z,9.05
2023-01-23T03:26:53.619Z,9.07
2023-01-23T03:29:41.692Z,9.09
2023-01-23T03:32:10.920Z,9.10
2023-01-23T03:34:39.705Z,9.08
2023-01-23T03:37:08.377Z,9.06
2023-01-23T03:39:54.046Z,9.06
2023-01-23T03:42:23.736Z,9.05
2023-01-23T03:44:53.599Z,9.07
2023-01-23T03:47:22.091Z,9.06
2023-01-23T03:49:50.204Z,9.11
2023-01-23T03:52:18.222Z,9.12
2023-01-23T03:54:46.240Z,9.13
2023-01-23T03:57:14.520Z,9.14
2023-01-23T03:59:44.344Z,9.16
2023-01-23T04:02:12.334Z,9.16
2023-01-23T04:04:40.569Z,9.17
2023-01-23T04:07:09.153Z,9.17
2023-01-23T04:09:37.168Z,9.16
2023-01-23T04:12:05.544Z,9.14
2023-01-23T04:14:37.648Z,9.14
2023-01-23T04:17:08.331Z,9.11
2023-01-23T04:19:36.667Z,9.08
2023-01-23T04:22:05.995Z,9.08
2023-01-23T04:24:34.003Z,9.06
2023-01-23T04:27:02.163Z,9.05
2023-01-23T04:29:30.239Z,9.07
2023-01-23T04:31:58.264Z,9.03
2023-01-23T04:34:27.714Z,9.03
2023-01-23T04:36:55.628Z,9.02
2023-01-23T04:39:23.783Z,9.01
2023-01-23T04:41:51.922Z,9.03
2023-01-23T04:44:22.960Z,9.02
2023-01-23T04:46:54.325Z,8.99
2023-01-23T04:49:23.344Z,8.95
2023-01-23T04:51:53.670Z,8.92
2023-01-23T04:54:23.231Z,8.88
2023-01-23T04:56:51.319Z,8.86
2023-01-23T04:59:19.419Z,8.84
2023-01-23T05:01:47.803Z,8.83
2023-01-23T05:04:16.039Z,8.86
2023-01-23T05:06:43.995Z,8.88
2023-01-23T05:09:13.885Z,8.86
2023-01-23T05:11:42.192Z,8.89
2023-01-23T05:14:10.241Z,8.90
2023-01-23T05:16:38.542Z,8.87
2023-01-23T05:19:06.630Z,8.77
2023-01-23T05:21:34.643Z,8.70
2023-01-23T05:24:02.816Z,8.65
2023-01-23T05:26:35.164Z,8.61
2023-01-23T05:29:03.495Z,8.58
2023-01-23T05:31:32.836Z,8.58
2023-01-23T05:34:00.985Z,8.57
2023-01-23T05:36:28.978Z,8.57
2023-01-23T05:38:57.184Z,8.56
2023-01-23T05:41:25.780Z,8.56
2023-01-23T05:43:55.391Z,8.58
2023-01-23T05:46:23.416Z,8.59
2023-01-23T05:48:52.172Z,8.62
2023-01-23T05:51:20.540Z,8.65
2023-01-23T05:53:50.097Z,8.66
2023-01-23T05:56:18.090Z,8.67
2023-01-23T05:58:46.121Z,8.66
2023-01-23T06:01:15.534Z,8.65
2023-01-23T06:03:43.724Z,8.64
2023-01-23T06:06:11.714Z,8.61
2023-01-23T06:08:40.201Z,8.58
2023-01-23T06:11:08.170Z,8.55
2023-01-23T06:13:36.310Z,8.51
2023-01-23T06:16:05.655Z,8.51
2023-01-23T06:18:35.449Z,8.49
2023-01-23T06:21:03.640Z,8.49
2023-01-23T06:23:32.808Z,8.46
2023-01-23T06:26:03.686Z,8.42
2023-01-23T06:28:31.881Z,8.38
2023-01-23T06:31:03.977Z,8.33
2023-01-23T06:33:32.437Z,8.33
2023-01-23T06:36:04.674Z,8.33
2023-01-23T06:38:33.048Z,8.35
2023-01-23T06:41:01.238Z,8.39
2023-01-23T06:43:29.534Z,8.44
2023-01-23T06:45:58.002Z,8.44
2023-01-23T06:48:26.062Z,8.48
2023-01-23T06:50:54.217Z,8.51
2023-01-23T06:53:23.598Z,8.54
2023-01-23T06:55:51.703Z,8.56
2023-01-23T06:58:20.147Z,8.57
2023-01-23T07:00:48.582Z,8.58
2023-01-23T07:03:16.941Z,8.59
2023-01-23T07:05:44.899Z,8.60
2023-01-23T07:08:13.156Z,8.61
2023-01-23T07:10:42.519Z,8.62
2023-01-23T07:13:12.841Z,8.61
2023-01-23T07:15:41.235Z,8.62
2023-01-23T07:18:10.557Z,8.62
2023-01-23T07:20:38.760Z,8.62
2023-01-23T07:23:06.945Z,8.62
2023-01-23T07:25:34.925Z,8.59
2023-01-23T07:28:04.436Z,8.56
2023-01-23T07:30:32.913Z,8.53
2023-01-23T07:33:01.405Z,8.49
2023-01-23T07:35:30.010Z,8.45
2023-01-23T07:37:58.173Z,8.46
2023-01-23T07:40:26.482Z,8.47
2023-01-23T07:42:54.423Z,8.48
2023-01-23T07:45:23.694Z,8.49
2023-01-23T07:47:51.754Z,8.52
2023-01-23T07:50:26.927Z,8.56
2023-01-23T07:52:56.894Z,8.60
2023-01-23T07:55:25.049Z,8.63
2023-01-23T07:57:54.119Z,8.65
2023-01-23T08:00:27.190Z,8.66
2023-01-23T08:02:57.541Z,8.69
2023-01-23T08:05:25.855Z,8.68
2023-01-23T08:08:11.445Z,8.69
2023-01-23T08:10:41.246Z,8.68
2023-01-23T08:13:09.475Z,8.70
2023-01-23T08:15:40.006Z,8.70
2023-01-23T08:18:10.692Z,8.71
2023-01-23T08:20:38.954Z,8.72
2023-01-23T08:23:07.205Z,8.76
2023-01-23T08:25:35.272Z,8.75
2023-01-23T08:28:03.344Z,8.73
2023-01-23T08:30:31.833Z,8.74
2023-01-23T08:33:04.773Z,8.73
2023-01-23T08:35:32.659Z,8.74
2023-01-23T08:38:02.620Z,8.73
2023-01-23T08:40:30.901Z,8.74
2023-01-23T08:42:59.015Z,8.73
2023-01-23T08:45:27.175Z,8.74
2023-01-23T08:47:55.420Z,8.74
2023-01-23T08:50:24.920Z,8.77
2023-01-23T08:52:52.863Z,8.79
2023-01-23T08:55:20.839Z,8.87
2023-01-23T08:57:48.676Z,8.90
2023-01-23T09:00:17.432Z,8.95
2023-01-23T09:02:45.526Z,9.01
2023-01-23T09:05:13.617Z,9.08
2023-01-23T09:07:43.342Z,9.16
2023-01-23T09:10:13.661Z,9.24
2023-01-23T09:12:43.055Z,9.33
2023-01-23T09:15:12.059Z,9.44
2023-01-23T09:17:40.353Z,9.54
2023-01-23T09:20:10.451Z,9.66
2023-01-23T09:22:38.634Z,9.79
2023-01-23T09:25:09.188Z,9.94
2023-01-23T09:27:37.521Z,10.11
2023-01-23T09:30:06.416Z,10.27
2023-01-23T09:32:34.801Z,10.41
2023-01-23T09:35:02.934Z,10.56
2023-01-23T09:37:58.475Z,10.73
2023-01-23T09:40:31.095Z,10.87
2023-01-23T09:43:05.444Z,10.98
2023-01-23T09:45:34.608Z,11.07
2023-01-23T09:48:15.674Z,11.16
2023-01-23T09:50:55.240Z,11.23
2023-01-23T09:53:26.765Z,11.31
2023-01-23T09:56:01.410Z,11.41
2023-01-23T09:58:36.900Z,11.46
2023-01-23T10:01:05.104Z,11.50
2023-01-23T10:03:33.886Z,11.55
2023-01-23T10:06:13.762Z,11.59
2023-01-23T10:08:53.810Z,11.65
2023-01-23T10:11:31.069Z,11.68
2023-01-23T10:14:17.306Z,11.67
2023-01-23T10:17:07.627Z,11.66
2023-01-23T10:20:04.570Z,11.63
2023-01-23T10:22:36.335Z,11.63
2023-01-23T10:25:13.774Z,11.62
2023-01-23T10:27:47.805Z,11.62
2023-01-23T10:30:22.370Z,11.63
2023-01-23T10:32:54.213Z,11.63
2023-01-23T10:35:29.979Z,11.65
2023-01-23T10:38:03.124Z,11.69
2023-01-23T10:40:48.340Z,11.67
2023-01-23T10:43:19.591Z,11.67
2023-01-23T10:45:48.936Z,11.70
2023-01-23T10:48:41.436Z,11.72
2023-01-23T10:51:29.272Z,11.70
2023-01-23T10:54:31.707Z,11.74
2023-01-23T10:57:02.530Z,11.78
2023-01-23T10:59:36.014Z,11.88
2023-01-23T11:02:20.981Z,11.99
2023-01-23T11:04:51.863Z,12.07
2023-01-23T11:07:23.293Z,12.20
2023-01-23T11:09:55.334Z,12.34
2023-01-23T11:12:25.466Z,12.49
2023-01-23T11:15:13.864Z,12.62
2023-01-23T11:17:43.616Z,12.72
2023-01-23T11:20:25.932Z,12.81
2023-01-23T11:23:16.042Z,12.93
2023-01-23T11:25:45.350Z,12.99
2023-01-23T11:28:23.771Z,13.08
2023-01-23T11:31:12.472Z,13.18
2023-01-23T11:33:47.887Z,13.30
2023-01-23T11:36:37.587Z,13.36
2023-01-23T11:39:17.007Z,13.45
2023-01-23T11:41:48.581Z,13.50
2023-01-23T11:44:21.025Z,13.54
2023-01-23T11:47:11.442Z,13.61
2023-01-23T11:50:00.607Z,13.70
2023-01-23T11:52:40.486Z,13.72
2023-01-23T11:55:28.258Z,13.78
2023-01-23T11:58:14.446Z,13.90
2023-01-23T12:00:47.865Z,13.94
2023-01-23T12:03:57.643Z,14.04
2023-01-23T12:06:38.646Z,14.11
2023-01-23T12:09:12.505Z,14.16
2023-01-23T12:11:57.165Z,14.22
2023-01-23T12:14:30.741Z,14.28
2023-01-23T12:17:13.723Z,14.31
2023-01-23T12:20:19.103Z,14.39
2023-01-23T12:23:07.283Z,14.47
2023-01-23T12:25:37.266Z,14.52
2023-01-23T12:28:21.062Z,14.59
2023-01-23T12:31:09.086Z,14.63
2023-01-23T12:33:58.805Z,14.67
2023-01-23T12:36:59.460Z,14.60
2023-01-23T12:39:53.576Z,14.54
2023-01-23T12:42:25.271Z,14.52
2023-01-23T12:45:01.234Z,14.52
2023-01-23T12:47:35.646Z,14.53
2023-01-23T12:50:10.478Z,14.54
2023-01-23T12:52:46.145Z,14.50
2023-01-23T12:55:20.511Z,14.48
2023-01-23T12:58:00.115Z,14.50
2023-01-23T13:00:46.371Z,14.55
2023-01-23T13:03:45.000Z,14.59
2023-01-23T13:06:37.437Z,14.63
2023-01-23T13:09:19.852Z,14.62
2023-01-23T13:11:56.776Z,14.60
2023-01-23T13:14:32.831Z,14.64
2023-01-23T13:17:03.861Z,14.63
2023-01-23T13:19:51.308Z,14.61
2023-01-23T13:22:30.482Z,14.55
2023-01-23T13:25:17.711Z,14.57
2023-01-23T13:27:51.256Z,14.52
2023-01-23T13:30:41.426Z,14.54
2023-01-23T13:33:52.843Z,14.54
2023-01-23T13:36:39.550Z,14.53
2023-01-23T13:39:29.160Z,14.56
2023-01-23T13:42:36.966Z,14.58
2023-01-23T13:45:36.832Z,14.58
2023-01-23T14:21:25.646Z,14.72
2023-01-23T14:23:58.250Z,14.75
2023-01-23T14:26:28.963Z,14.81
2023-01-23T14:29:00.510Z,14.80
2023-01-23T14:31:31.798Z,14.82
2023-01-23T14:34:09.786Z,14.80
2023-01-23T14:36:39.524Z,14.77
2023-01-23T14:39:07.628Z,14.74
2023-01-23T14:41:41.587Z,14.70
2023-01-23T14:44:19.538Z,14.70
2023-01-23T14:46:54.065Z,14.68
2023-01-23T14:49:27.781Z,14.67
2023-01-23T14:52:00.881Z,14.66
2023-01-23T14:54:32.892Z,14.65
2023-01-23T14:57:04.591Z,14.65
2023-01-23T14:59:35.908Z,14.66
2023-01-23T15:02:26.677Z,14.62
2023-01-23T15:05:18.383Z,14.62
2023-01-23T15:07:48.811Z,14.55
2023-01-23T15:10:19.236Z,14.54
2023-01-23T15:12:52.831Z,14.54
2023-01-23T15:15:23.671Z,14.51
2023-01-23T15:17:56.797Z,14.46
2023-01-23T15:20:35.536Z,14.44
2023-01-23T15:23:28.323Z,14.46
2023-01-23T15:26:24.664Z,14.45
2023-01-23T15:28:54.222Z,14.42
2023-01-23T15:31:28.091Z,14.46
2023-01-23T15:33:58.979Z,14.50
2023-01-23T15:36:29.840Z,14.53
2023-01-23T15:39:00.260Z,14.54
2023-01-23T15:41:43.908Z,14.53
2023-01-23T15:44:16.469Z,14.56
2023-01-23T15:46:44.473Z,14.53
2023-01-23T15:49:24.874Z,14.55
2023-01-23T15:51:55.739Z,14.53
2023-01-23T15:54:27.356Z,14.48
2023-01-23T15:57:06.527Z,14.41
2023-01-23T15:59:36.509Z,14.34
2023-01-23T16:02:04.966Z,14.26
2023-01-23T16:04:34.706Z,14.18
2023-01-23T16:07:06.647Z,14.11
2023-01-23T16:09:39.132Z,14.03
2023-01-23T16:12:08.544Z,13.90
2023-01-23T16:14:37.337Z,13.79
2023-01-23T16:17:16.494Z,13.68
2023-01-23T16:19:47.233Z,13.56
2023-01-23T16:22:19.261Z,13.46
2023-01-23T16:24:47.412Z,13.36
2023-01-23T16:27:19.061Z,13.24
2023-01-23T16:29:49.593Z,13.08
2023-01-23T16:32:17.974Z,12.93
2023-01-23T16:34:47.693Z,12.79
2023-01-23T16:37:17.931Z,12.68
2023-01-23T16:39:47.871Z,12.54
2023-01-23T16:42:22.829Z,12.44
2023-01-23T16:44:51.392Z,12.31
2023-01-23T16:47:19.561Z,12.21
2023-01-23T16:49:53.719Z,12.06
2023-01-23T16:52:26.436Z,11.88
2023-01-23T16:54:55.787Z,11.75
2023-01-23T16:57:25.155Z,11.61
2023-01-23T16:59:56.415Z,11.49
2023-01-23T17:02:28.861Z,11.40
2023-01-23T17:04:58.522Z,11.32
2023-01-23T17:07:26.462Z,11.23
2023-01-23T17:09:54.370Z,11.13
2023-01-23T17:12:27.802Z,11.01
2023-01-23T17:14:57.307Z,10.90
2023-01-23T17:17:30.519Z,10.84
2023-01-23T17:20:01.453Z,10.78
2023-01-23T17:22:31.531Z,10.73
2023-01-23T17:24:59.807Z,10.68
2023-01-23T17:27:27.970Z,10.65
2023-01-23T17:29:56.019Z,10.57
2023-01-23T17:32:30.598Z,10.45
2023-01-23T17:35:03.175Z,10.37
2023-01-23T17:37:31.829Z,10.26
2023-01-23T17:39:59.867Z,10.16
2023-01-23T17:42:28.119Z,10.10
2023-01-23T17:44:56.566Z,10.03
2023-01-23T17:47:25.658Z,9.98
2023-01-23T17:49:55.510Z,9.95
2023-01-23T17:52:26.734Z,9.92
2023-01-23T17:54:54.861Z,9.87
2023-01-23T17:57:23.199Z,9.85
2023-01-23T17:59:51.060Z,9.79
2023-01-23T18:02:28.174Z,9.75
2023-01-23T18:04:56.676Z,9.72
2023-01-23T18:07:48.651Z,9.67
2023-01-23T18:10:22.379Z,9.65
2023-01-23T18:13:00.358Z,9.61
2023-01-23T18:15:37.714Z,9.57
2023-01-23T18:18:22.819Z,9.52
2023-01-23T18:20:54.976Z,9.48
2023-01-23T18:23:26.400Z,9.41
2023-01-23T18:26:03.433Z,9.33
2023-01-23T18:28:41.007Z,9.33
2023-01-23T18:31:14.909Z,9.33
2023-01-23T18:33:54.466Z,9.30
2023-01-23T18:36:37.486Z,9.28
2023-01-23T18:39:37.229Z,9.27
2023-01-23T18:42:16.757Z,9.21
2023-01-23T18:44:52.489Z,9.19
2023-01-23T18:47:20.775Z,9.14
2023-01-23T18:49:49.189Z,9.07
2023-01-23T18:52:23.015Z,9.01
2023-01-23T18:55:02.679Z,8.96
2023-01-23T18:57:57.130Z,8.92
2023-01-23T19:00:31.970Z,8.87
2023-01-23T19:03:09.945Z,8.87
2023-01-23T19:05:38.577Z,8.92
2023-01-23T19:08:07.283Z,8.89
2023-01-23T19:10:48.618Z,8.83
2023-01-23T19:13:21.591Z,8.77
2023-01-23T19:16:03.027Z,8.73
2023-01-23T19:18:45.739Z,8.68
2023-01-23T19:21:20.931Z,8.65
2023-01-23T19:23:57.111Z,8.62
2023-01-23T19:26:29.800Z,8.61
2023-01-23T19:28:59.831Z,8.55
2023-01-23T19:31:32.246Z,8.43
2023-01-23T19:34:01.782Z,8.36
2023-01-23T19:36:32.301Z,8.34
2023-01-23T19:39:03.093Z,8.35
2023-01-23T19:41:40.276Z,8.36
2023-01-23T19:44:10.231Z,8.37
2023-01-23T19:46:38.377Z,8.31
2023-01-23T19:49:08.044Z,8.24
2023-01-23T19:51:36.560Z,8.17
2023-01-23T19:54:09.442Z,8.10
2023-01-23T19:56:39.487Z,8.04
2023-01-23T19:59:07.763Z,7.97
2023-01-23T20:01:40.339Z,7.91
2023-01-23T20:04:09.446Z,7.85
2023-01-23T20:06:40.508Z,7.79
2023-01-23T20:09:08.545Z,7.77
2023-01-23T20:11:36.606Z,7.75
2023-01-23T20:14:06.057Z,7.74
2023-01-23T20:16:34.125Z,7.70
2023-01-23T20:19:02.245Z,7.66
2023-01-23T20:21:30.273Z,7.62
2023-01-23T20:23:58.299Z,7.60
2023-01-23T20:26:26.335Z,7.58
2023-01-23T20:28:54.561Z,7.56
2023-01-23T20:31:24.278Z,7.52
2023-01-23T20:33:52.528Z,7.44
2023-01-23T20:36:20.608Z,7.38
2023-01-23T20:38:48.524Z,7.33
2023-01-23T20:41:18.774Z,7.31
2023-01-23T20:43:47.668Z,7.30
2023-01-23T20:46:19.077Z,7.27
2023-01-23T20:48:48.734Z,7.23
2023-01-23T20:51:17.773Z,7.22
2023-01-23T20:53:46.627Z,7.20
2023-01-23T20:56:16.642Z,7.17
2023-01-23T20:59:04.447Z,7.16
2023-01-23T21:01:54.666Z,7.16
2023-01-23T21:04:26.023Z,7.22
2023-01-23T21:06:54.072Z,7.29
2023-01-23T21:09:23.251Z,7.25
2023-01-23T21:11:52.367Z,7.19
2023-01-23T21:14:21.457Z,7.13
2023-01-23T21:16:49.632Z,7.05
2023-01-23T21:19:18.021Z,6.97
2023-01-23T21:21:47.654Z,6.93
2023-01-23T21:24:16.279Z,6.90
2023-01-23T21:26:45.027Z,6.89
2023-01-23T21:29:13.004Z,6.86
2023-01-23T21:31:41.365Z,6.83
2023-01-23T21:34:11.553Z,6.84
2023-01-23T21:36:40.465Z,6.87
2023-01-23T21:39:11.627Z,6.86
2023-01-23T21:41:40.111Z,6.81
2023-01-23T21:44:08.342Z,6.79
2023-01-23T21:46:36.362Z,6.73
2023-01-23T21:49:04.611Z,6.70
2023-01-23T21:51:32.867Z,6.69
2023-01-23T21:54:00.951Z,6.69
2023-01-23T21:56:30.547Z,6.74
2023-01-23T21:58:59.120Z,6.71
2023-01-23T22:01:32.802Z,6.66
2023-01-23T22:04:01.969Z,6.63
2023-01-23T22:06:30.614Z,6.59
2023-01-23T22:09:00.319Z,6.57
2023-01-23T22:11:28.542Z,6.52
2023-01-23T22:13:58.428Z,6.48
2023-01-23T22:16:46.434Z,6.42
2023-01-23T22:19:16.426Z,6.38
2023-01-23T22:21:46.920Z,6.35
2023-01-23T22:24:15.551Z,6.35
2023-01-23T22:26:43.946Z,6.35
2023-01-23T22:29:14.052Z,6.40
2023-01-23T22:31:42.717Z,6.44
2023-01-23T22:34:11.632Z,6.50
2023-01-23T22:36:39.625Z,6.51
2023-01-23T22:39:08.108Z,6.47
2023-01-23T22:41:36.335Z,6.43
2023-01-23T22:44:04.710Z,6.37
2023-01-23T22:46:34.104Z,6.35
2023-01-23T22:49:02.128Z,6.39
2023-01-23T22:51:30.236Z,6.39
2023-01-23T22:53:59.460Z,6.39
2023-01-23T22:56:28.814Z,6.36
2023-01-23T22:58:57.930Z,6.30
2023-01-23T23:01:28.660Z,6.25
2023-01-23T23:04:00.531Z,6.18
2023-01-23T23:06:29.096Z,6.15
2023-01-23T23:08:58.103Z,6.18
2023-01-23T23:11:27.929Z,6.17
2023-01-23T23:13:58.123Z,6.15
2023-01-23T23:16:28.129Z,6.15
2023-01-23T23:18:59.075Z,6.15
2023-01-23T23:21:30.416Z,6.15
2023-01-23T23:23:59.819Z,6.11
2023-01-23T23:26:30.092Z,6.12
2023-01-23T23:28:58.819Z,6.14
2023-01-23T23:31:27.011Z,6.12
2023-01-23T23:33:55.441Z,6.17
2023-01-23T23:36:24.943Z,6.17
2023-01-23T23:38:53.198Z,6.14
2023-01-23T23:41:23.751Z,6.12
2023-01-23T23:43:52.077Z,6.05
2023-01-23T23:46:20.674Z,6.05
2023-01-23T23:48:48.714Z,6.05
2023-01-23T23:51:19.763Z,6.04
2023-01-23T23:53:49.580Z,6.06
2023-01-23T23:56:21.962Z,6.05
2023-01-23T23:58:50.042Z,6.04
